createdAt,value
2022-09-09T00:00:13.011Z,1.30
2022-09-09T00:02:39.932Z,2.33
2022-09-09T00:05:19.412Z,3.25
2022-09-09T00:07:49.662Z,5.07
2022-09-09T00:10:34.799Z,6.82
2022-09-09T00:13:24.572Z,3.83
2022-09-09T00:16:09.960Z,2.05
2022-09-09T00:18:41.010Z,5.50
2022-09-09T00:21:08.622Z,2.85
2022-09-09T00:23:37.591Z,2.25
2022-09-09T00:26:12.775Z,4.22
2022-09-09T00:29:03.311Z,2.10
2022-09-09T00:31:30.671Z,3.25
2022-09-09T00:34:01.939Z,3.80
2022-09-09T00:36:29.943Z,2.45
2022-09-09T00:38:57.837Z,2.42
2022-09-09T00:41:26.851Z,8.60
2022-09-09T00:43:56.064Z,4.07
2022-09-09T00:46:41.063Z,3.13
2022-09-09T00:49:21.810Z,5.18
2022-09-09T00:54:14.168Z,2.85
2022-09-09T00:56:59.172Z,4.72
2022-09-09T00:59:33.199Z,4.68
2022-09-09T01:02:00.640Z,4.43
2022-09-09T01:04:34.916Z,3.72
2022-09-09T01:07:06.706Z,3.80
2022-09-09T01:09:39.039Z,2.90
2022-09-09T01:12:16.386Z,4.32
2022-09-09T01:14:49.772Z,3.53
2022-09-09T01:17:18.465Z,7.53
2022-09-09T01:19:44.663Z,4.18
2022-09-09T01:22:10.858Z,4.88
2022-09-09T01:24:37.055Z,4.18
2022-09-09T01:27:04.811Z,5.80
2022-09-09T01:29:31.327Z,4.25
2022-09-09T01:32:02.200Z,6.05
2022-09-09T01:34:30.711Z,5.03
2022-09-09T01:37:08.083Z,4.50
2022-09-09T01:39:35.285Z,4.70
2022-09-09T01:42:02.300Z,4.72
2022-09-09T01:44:30.715Z,4.45
2022-09-09T01:46:57.443Z,6.18
2022-09-09T01:49:23.795Z,3.60
2022-09-09T01:51:52.791Z,9.45
2022-09-09T01:54:19.732Z,7.25
2022-09-09T01:56:49.881Z,3.03
2022-09-09T01:59:30.403Z,3.25
2022-09-09T02:02:22.922Z,5.30
2022-09-09T02:04:51.262Z,4.55
2022-09-09T02:07:39.318Z,3.85
2022-09-09T02:10:12.135Z,4.82
2022-09-09T02:12:41.400Z,3.38
2022-09-09T02:15:10.188Z,6.28
2022-09-09T02:17:39.606Z,3.30
2022-09-09T02:20:08.516Z,5.45
2022-09-09T02:22:36.602Z,6.35
2022-09-09T02:25:03.635Z,3.45
2022-09-09T02:27:30.366Z,5.97
2022-09-09T02:29:57.688Z,4.80
2022-09-09T02:32:24.799Z,7.05
2022-09-09T02:34:56.967Z,4.90
2022-09-09T02:37:26.061Z,3.78
2022-09-09T02:39:52.760Z,4.03
2022-09-09T02:42:19.969Z,5.72
2022-09-09T02:44:46.307Z,6.65
2022-09-09T02:47:33.285Z,4.45
2022-09-09T02:50:14.927Z,6.95
2022-09-09T02:52:47.205Z,4.93
2022-09-09T02:55:19.159Z,7.68
2022-09-09T02:57:48.029Z,3.88
2022-09-09T03:00:14.483Z,6.55
2022-09-09T03:02:40.791Z,7.95
2022-09-09T03:05:07.342Z,5.85
2022-09-09T03:07:33.760Z,8.25
2022-09-09T03:10:00.352Z,8.50
2022-09-09T03:12:26.618Z,4.32
2022-09-09T03:14:52.856Z,9.82
2022-09-09T03:17:19.106Z,3.88
2022-09-09T03:19:45.505Z,4.88
2022-09-09T03:22:12.239Z,5.88
2022-09-09T03:24:38.472Z,5.45
2022-09-09T03:27:04.719Z,7.47
2022-09-09T03:29:30.973Z,8.88
2022-09-09T03:31:57.236Z,6.70
2022-09-09T03:34:23.461Z,8.20
2022-09-09T03:36:50.103Z,7.30
2022-09-09T03:39:16.455Z,8.02
2022-09-09T03:41:42.679Z,10.52
2022-09-09T03:44:08.896Z,10.60
2022-09-09T03:46:35.158Z,6.93
2022-09-09T03:49:02.377Z,8.63
2022-09-09T03:51:29.012Z,7.20
2022-09-09T03:53:59.005Z,6.95
2022-09-09T03:56:25.497Z,8.35
2022-09-09T03:58:51.727Z,9.80
2022-09-09T04:01:18.801Z,8.30
2022-09-09T04:03:48.263Z,9.63
2022-09-09T04:06:15.581Z,6.30
2022-09-09T04:08:42.591Z,7.72
2022-09-09T04:11:08.992Z,6.97
2022-09-09T04:13:35.732Z,7.88
2022-09-09T04:16:03.144Z,6.97
2022-09-09T04:18:29.429Z,9.48
2022-09-09T04:20:58.024Z,6.22
2022-09-09T04:23:25.121Z,6.10
2022-09-09T04:25:52.573Z,9.45
2022-09-09T04:28:19.758Z,9.45
2022-09-09T04:30:46.585Z,7.68
2022-09-09T04:33:13.491Z,4.60
2022-09-09T04:35:39.873Z,9.73
2022-09-09T04:38:10.297Z,6.05
2022-09-09T04:40:36.538Z,4.93
2022-09-09T04:43:04.650Z,6.47
2022-09-09T04:45:31.215Z,6.88
2022-09-09T04:47:58.029Z,7.38
2022-09-09T04:50:24.250Z,6.85
2022-09-09T04:52:50.442Z,5.28
2022-09-09T04:55:16.740Z,7.68
2022-09-09T04:57:42.982Z,7.80
2022-09-09T05:00:09.496Z,6.75
2022-09-09T05:02:38.767Z,14.27
2022-09-09T05:05:05.328Z,5.55
2022-09-09T05:07:32.226Z,8.73
2022-09-09T05:09:58.536Z,13.23
2022-09-09T05:12:26.502Z,4.93
2022-09-09T05:14:53.130Z,5.40
2022-09-09T05:17:19.392Z,7.35
2022-09-09T05:19:45.618Z,10.15
2022-09-09T05:22:12.824Z,9.43
2022-09-09T05:24:39.367Z,12.45
2022-09-09T05:27:07.031Z,8.85
2022-09-09T05:29:36.203Z,6.40
2022-09-09T05:32:02.581Z,6.90
2022-09-09T05:34:28.839Z,5.88
2022-09-09T05:36:55.075Z,8.98
2022-09-09T05:39:21.305Z,4.22
2022-09-09T05:41:47.631Z,7.57
2022-09-09T05:44:14.378Z,6.85
2022-09-09T05:46:40.770Z,10.30
2022-09-09T05:49:07.057Z,5.25
2022-09-09T05:51:33.398Z,8.80
2022-09-09T05:53:59.688Z,8.48
2022-09-09T05:56:27.378Z,9.23
2022-09-09T05:58:56.935Z,10.10
2022-09-09T06:01:24.880Z,8.20
2022-09-09T06:03:51.784Z,7.00
2022-09-09T06:06:21.644Z,7.50
2022-09-09T06:08:47.907Z,8.73
2022-09-09T06:11:15.460Z,8.68
2022-09-09T06:13:41.982Z,7.10
2022-09-09T06:16:12.342Z,6.18
2022-09-09T06:18:39.106Z,5.50
2022-09-09T06:21:07.328Z,8.88
2022-09-09T06:23:33.882Z,5.15
2022-09-09T06:26:07.038Z,9.65
2022-09-09T06:28:34.219Z,8.38
2022-09-09T06:31:05.145Z,7.75
2022-09-09T06:33:32.449Z,5.03
2022-09-09T06:35:59.024Z,7.65
2022-09-09T06:38:25.314Z,9.93
2022-09-09T06:40:52.518Z,5.88
2022-09-09T06:43:19.606Z,6.82
2022-09-09T06:45:53.291Z,8.93
2022-09-09T06:48:19.588Z,11.15
2022-09-09T06:50:45.860Z,11.15
2022-09-09T06:53:12.094Z,11.93
2022-09-09T06:55:38.308Z,11.00
2022-09-09T06:58:08.960Z,9.75
2022-09-09T07:03:01.461Z,11.60
2022-09-09T07:05:27.679Z,5.07
2022-09-09T07:07:53.967Z,14.90
2022-09-09T07:10:20.249Z,8.07
2022-09-09T07:12:50.891Z,10.68
2022-09-09T07:17:43.929Z,8.88
2022-09-09T07:20:10.192Z,7.68
2022-09-09T07:22:36.462Z,6.30
2022-09-09T07:25:03.207Z,6.70
2022-09-09T07:27:29.463Z,9.25
2022-09-09T07:29:55.657Z,7.18
2022-09-09T07:32:21.983Z,7.43
2022-09-09T07:34:48.214Z,8.82
2022-09-09T07:37:14.505Z,14.85
2022-09-09T07:39:40.795Z,6.32
2022-09-09T07:42:07.771Z,8.50
2022-09-09T07:44:36.048Z,10.93
2022-09-09T07:47:02.948Z,9.43
2022-09-09T07:49:32.711Z,7.70
2022-09-09T07:51:59.321Z,4.25
2022-09-09T07:54:25.602Z,11.95
2022-09-09T07:56:52.258Z,11.32
2022-09-09T07:59:19.200Z,7.18
2022-09-09T08:01:47.500Z,11.02
2022-09-09T08:04:16.427Z,6.32
2022-09-09T08:06:44.391Z,8.90
2022-09-09T08:09:11.145Z,8.75
2022-09-09T08:11:39.175Z,5.38
2022-09-09T08:14:06.123Z,7.68
2022-09-09T08:16:34.199Z,7.20
2022-09-09T08:19:00.593Z,6.75
2022-09-09T08:21:31.271Z,9.57
2022-09-09T08:26:25.988Z,7.07
2022-09-09T08:28:53.234Z,4.25
2022-09-09T08:31:21.622Z,7.80
2022-09-09T08:33:53.152Z,8.88
2022-09-09T08:36:23.983Z,6.85
2022-09-09T08:38:51.267Z,9.23
2022-09-09T08:41:36.128Z,9.85
2022-09-09T08:44:08.438Z,7.65
2022-09-09T08:46:43.914Z,7.78
2022-09-09T08:49:26.808Z,8.68
2022-09-09T08:51:56.159Z,5.78
2022-09-09T08:54:48.365Z,8.93
2022-09-09T08:57:14.604Z,4.03
2022-09-09T08:59:41.999Z,6.10
2022-09-09T09:02:27.715Z,7.45
2022-09-09T09:05:00.027Z,6.40
2022-09-09T09:07:34.709Z,12.07
2022-09-09T09:10:05.064Z,7.88
2022-09-09T09:12:42.935Z,6.35
2022-09-09T09:15:16.993Z,8.63
2022-09-09T09:17:44.440Z,8.80
2022-09-09T09:20:15.963Z,8.80
2022-09-09T09:22:48.112Z,11.95
2022-09-09T09:25:23.151Z,9.07
2022-09-09T09:28:01.592Z,5.72
2022-09-09T09:30:32.168Z,5.43
2022-09-09T09:35:24.885Z,9.10
2022-09-09T09:40:38.302Z,7.95
2022-09-09T09:43:09.505Z,6.70
2022-09-09T09:45:35.890Z,11.40
2022-09-09T09:48:07.781Z,6.90
2022-09-09T09:50:35.478Z,6.60
2022-09-09T09:53:04.923Z,9.73
2022-09-09T09:55:32.643Z,5.90
2022-09-09T09:58:06.722Z,11.55
2022-09-09T10:00:33.457Z,8.27
2022-09-09T10:03:00.594Z,10.48
2022-09-09T10:05:31.555Z,5.70
2022-09-09T10:08:20.824Z,9.90
2022-09-09T10:10:56.770Z,10.23
2022-09-09T10:13:25.784Z,9.45
2022-09-09T10:16:05.176Z,10.38
2022-09-09T10:18:32.374Z,6.73
2022-09-09T10:21:16.534Z,6.28
2022-09-09T10:23:42.775Z,6.72
2022-09-09T10:26:33.133Z,11.73
2022-09-09T10:29:08.196Z,6.03
2022-09-09T10:32:01.416Z,7.82
2022-09-09T10:34:48.039Z,11.32
2022-09-09T10:37:34.712Z,7.88
2022-09-09T10:40:05.845Z,4.43
2022-09-09T10:42:32.400Z,8.10
2022-09-09T10:45:17.944Z,4.90
2022-09-09T10:47:53.996Z,4.38
2022-09-09T10:50:38.071Z,8.10
2022-09-09T10:53:15.262Z,5.65
2022-09-09T10:55:46.187Z,9.13
2022-09-09T10:58:18.963Z,8.45
2022-09-09T11:00:46.652Z,11.75
2022-09-09T11:03:19.632Z,10.23
2022-09-09T11:05:50.459Z,8.60
2022-09-09T11:08:19.376Z,10.93
2022-09-09T11:10:49.649Z,11.73
2022-09-09T11:13:19.211Z,7.15
2022-09-09T11:15:54.629Z,8.68
2022-09-09T11:18:22.566Z,9.55
2022-09-09T11:20:49.768Z,9.90
2022-09-09T11:23:28.686Z,8.60
2022-09-09T11:25:57.825Z,5.70
2022-09-09T11:28:27.748Z,8.65
2022-09-09T11:30:56.841Z,3.60
2022-09-09T11:33:35.619Z,4.47
2022-09-09T11:36:04.499Z,7.03
2022-09-09T11:38:41.788Z,5.30
2022-09-09T11:41:09.935Z,10.60
2022-09-09T11:43:42.145Z,4.13
2022-09-09T11:46:09.089Z,8.32
2022-09-09T11:48:36.758Z,4.28
2022-09-09T11:51:14.587Z,4.50
2022-09-09T11:53:52.349Z,11.80
2022-09-09T11:56:44.997Z,11.77
2022-09-09T11:59:25.500Z,7.00
2022-09-09T12:02:02.570Z,5.25
2022-09-09T12:04:31.295Z,6.82
2022-09-09T12:06:59.111Z,3.45
2022-09-09T12:09:42.317Z,7.38
2022-09-09T12:12:14.551Z,9.27
2022-09-09T12:14:46.461Z,7.78
2022-09-09T12:17:20.239Z,7.32
2022-09-09T12:19:47.024Z,13.38
2022-09-09T12:22:31.802Z,8.85
2022-09-09T12:25:21.397Z,6.85
2022-09-09T12:28:01.706Z,9.20
2022-09-09T12:30:35.307Z,6.60
2022-09-09T12:33:14.359Z,10.73
2022-09-09T12:35:42.458Z,7.10
2022-09-09T12:38:13.225Z,5.43
2022-09-09T12:40:40.507Z,3.75
2022-09-09T12:43:21.156Z,9.35
2022-09-09T12:48:16.543Z,5.40
2022-09-09T12:50:46.997Z,7.43
2022-09-09T12:53:26.140Z,5.95
2022-09-09T12:56:04.000Z,4.75
2022-09-09T12:58:33.863Z,5.32
2022-09-09T13:01:01.067Z,7.35
2022-09-09T13:03:27.880Z,7.32
2022-09-09T13:05:54.627Z,5.70
2022-09-09T13:08:21.432Z,5.82
2022-09-09T13:10:53.696Z,5.20
2022-09-09T13:13:22.772Z,4.75
2022-09-09T13:15:53.715Z,8.05
2022-09-09T13:18:22.473Z,6.38
2022-09-09T13:20:49.570Z,9.35
2022-09-09T13:23:16.901Z,14.60
2022-09-09T13:25:54.231Z,5.57
2022-09-09T13:28:22.302Z,4.85
2022-09-09T13:31:01.202Z,14.32
2022-09-09T13:35:56.515Z,6.70
2022-09-09T13:38:27.504Z,8.82
2022-09-09T13:41:14.403Z,8.18
2022-09-09T13:43:45.187Z,8.77
2022-09-09T13:46:25.895Z,4.55
2022-09-09T13:51:43.092Z,5.03
2022-09-09T13:54:10.599Z,9.15
2022-09-09T13:56:37.680Z,6.93
2022-09-09T13:59:05.825Z,7.75
2022-09-09T14:01:32.426Z,7.50
2022-09-09T14:03:59.790Z,11.32
2022-09-09T14:06:26.050Z,6.15
2022-09-09T14:08:52.652Z,3.38
2022-09-09T14:11:19.131Z,4.45
2022-09-09T14:13:45.435Z,5.93
2022-09-09T14:16:11.687Z,5.43
2022-09-09T14:18:39.123Z,3.97
2022-09-09T14:21:05.675Z,8.40
2022-09-09T14:23:33.267Z,5.47
2022-09-09T14:25:59.516Z,6.80
2022-09-09T14:28:51.930Z,4.30
2022-09-09T14:31:14.347Z,3.53
2022-09-09T14:33:40.805Z,4.15
2022-09-09T14:36:07.308Z,9.63
2022-09-09T14:38:35.204Z,6.65
2022-09-09T14:41:04.104Z,8.25
2022-09-09T14:43:30.996Z,8.13
2022-09-09T14:45:57.275Z,5.90
2022-09-09T14:48:23.556Z,6.90
2022-09-09T14:50:50.175Z,5.95
2022-09-09T14:53:17.778Z,5.05
2022-09-09T14:55:44.038Z,5.00
2022-09-09T14:58:10.302Z,7.93
2022-09-09T15:00:37.173Z,6.80
2022-09-09T15:03:03.463Z,15.57
2022-09-09T15:05:29.880Z,5.38
2022-09-09T15:07:56.087Z,9.55
2022-09-09T15:10:22.396Z,9.20
2022-09-09T15:12:48.611Z,6.40
2022-09-09T15:15:14.883Z,6.13
2022-09-09T15:17:41.135Z,5.85
2022-09-09T15:20:07.753Z,5.25
2022-09-09T15:22:34.782Z,2.30
2022-09-09T15:25:01.009Z,5.18
2022-09-09T15:27:27.227Z,1.63
2022-09-09T15:29:53.482Z,5.20
2022-09-09T15:32:19.842Z,1.80
2022-09-09T15:34:47.060Z,2.03
2022-09-09T15:37:16.304Z,4.22
2022-09-09T15:39:42.588Z,2.28
2022-09-09T15:42:09.358Z,3.83
2022-09-09T15:44:43.245Z,1.77
2022-09-09T15:47:11.690Z,3.17
2022-09-09T15:49:37.911Z,2.25
2022-09-09T15:52:04.343Z,3.13
2022-09-09T15:54:35.325Z,4.43
2022-09-09T15:57:03.084Z,2.70
2022-09-09T15:59:30.676Z,3.58
2022-09-09T16:01:57.504Z,1.50
2022-09-09T16:04:24.524Z,3.30
2022-09-09T16:06:51.849Z,2.92
2022-09-09T16:09:18.099Z,1.73
2022-09-09T16:11:44.319Z,1.88
2022-09-09T16:14:11.942Z,2.17
2022-09-09T16:16:38.198Z,2.00
2022-09-09T16:19:06.305Z,1.77
2022-09-09T16:21:33.928Z,1.50
2022-09-09T16:24:01.151Z,4.80
2022-09-09T16:26:28.520Z,1.45
2022-09-09T16:28:58.424Z,5.05
2022-09-09T16:31:25.226Z,3.80
2022-09-09T16:33:51.689Z,3.05
2022-09-09T16:36:19.532Z,3.42
2022-09-09T16:38:46.002Z,4.07
2022-09-09T16:41:13.012Z,5.72
2022-09-09T16:43:39.602Z,3.92
2022-09-09T16:46:17.328Z,4.43
2022-09-09T16:48:46.919Z,8.45
2022-09-09T16:51:15.612Z,2.90
2022-09-09T16:53:44.824Z,3.28
2022-09-09T16:56:12.851Z,3.30
2022-09-09T16:58:39.196Z,4.47
2022-09-09T17:01:05.929Z,3.42
2022-09-09T17:03:33.433Z,4.65
2022-09-09T17:06:02.832Z,2.80
2022-09-09T17:08:32.084Z,2.15
2022-09-09T17:10:59.019Z,4.55
2022-09-09T17:13:25.980Z,3.55
2022-09-09T17:15:52.464Z,3.58
2022-09-09T17:18:19.031Z,6.68
2022-09-09T17:20:47.207Z,4.53
2022-09-09T17:23:16.346Z,6.32
2022-09-09T17:25:42.591Z,9.13
2022-09-09T17:28:08.809Z,5.05
2022-09-09T17:30:35.363Z,3.55
2022-09-09T17:33:01.779Z,6.53
2022-09-09T17:35:28.515Z,6.13
2022-09-09T17:37:55.547Z,4.43
2022-09-09T17:40:22.078Z,6.22
2022-09-09T17:42:48.338Z,6.38
2022-09-09T17:45:17.115Z,5.45
2022-09-09T17:47:43.804Z,6.25
2022-09-09T17:50:13.560Z,4.45
2022-09-09T17:52:41.458Z,4.77
2022-09-09T17:55:09.910Z,5.85
2022-09-09T17:57:36.341Z,7.80
2022-09-09T18:00:02.778Z,5.97
2022-09-09T18:02:29.770Z,6.45
2022-09-09T18:04:56.031Z,8.32
2022-09-09T18:07:22.252Z,4.13
2022-09-09T18:09:49.986Z,7.50
2022-09-09T18:12:16.443Z,3.42
2022-09-09T18:14:42.643Z,7.68
2022-09-09T18:17:09.107Z,5.00
2022-09-09T18:19:35.609Z,2.55
2022-09-09T18:22:03.581Z,3.85
2022-09-09T18:24:30.332Z,5.03
2022-09-09T18:26:56.575Z,7.32
2022-09-09T18:29:25.065Z,8.23
2022-09-09T18:31:53.111Z,4.25
2022-09-09T18:34:20.870Z,6.38
2022-09-09T18:36:48.646Z,4.28
2022-09-09T18:39:16.499Z,11.45
2022-09-09T18:41:44.829Z,5.47
2022-09-09T18:44:13.527Z,5.97
2022-09-09T18:46:41.086Z,10.18
2022-09-09T18:49:07.648Z,5.03
2022-09-09T18:51:36.891Z,3.58
2022-09-09T18:54:22.660Z,4.65
2022-09-09T18:56:49.077Z,5.93
2022-09-09T18:59:19.030Z,4.53
2022-09-09T19:01:46.510Z,3.85
2022-09-09T19:04:12.928Z,3.92
2022-09-09T19:06:41.427Z,5.45
2022-09-09T19:09:15.633Z,5.65
2022-09-09T19:11:42.507Z,6.43
2022-09-09T19:14:11.403Z,6.63
2022-09-09T19:16:37.743Z,4.07
2022-09-09T19:19:06.210Z,5.65
2022-09-09T19:21:36.834Z,5.10
2022-09-09T19:26:32.046Z,8.98
2022-09-09T19:28:59.002Z,6.50
2022-09-09T19:31:27.814Z,12.20
2022-09-09T19:33:55.584Z,5.70
2022-09-09T19:36:22.568Z,5.75
2022-09-09T19:38:48.796Z,6.00
2022-09-09T19:41:17.403Z,6.13
2022-09-09T19:43:44.252Z,6.07
2022-09-09T19:46:14.370Z,9.80
2022-09-09T19:48:41.427Z,16.27
2022-09-09T19:51:09.285Z,7.45
2022-09-09T19:53:36.485Z,7.82
2022-09-09T19:56:03.675Z,8.95
2022-09-09T19:58:34.172Z,8.15
2022-09-09T20:03:26.883Z,8.32
2022-09-09T20:05:53.714Z,10.65
2022-09-09T20:08:20.017Z,8.88
2022-09-09T20:10:52.945Z,7.15
2022-09-09T20:13:19.236Z,11.95
2022-09-09T20:15:45.485Z,8.52
2022-09-09T20:18:11.817Z,6.45
2022-09-09T20:20:41.865Z,14.98
2022-09-09T20:23:08.869Z,11.88
2022-09-09T20:25:38.198Z,9.85
2022-09-09T20:28:04.558Z,8.80
2022-09-09T20:30:31.201Z,11.02
2022-09-09T20:32:57.411Z,9.77
2022-09-09T20:35:24.220Z,10.55
2022-09-09T20:37:50.451Z,9.18
2022-09-09T20:40:16.659Z,10.40
2022-09-09T20:42:43.275Z,10.35
2022-09-09T20:45:16.012Z,8.52
2022-09-09T20:47:42.223Z,13.02
2022-09-09T20:50:10.461Z,9.98
2022-09-09T20:52:36.683Z,9.20
2022-09-09T20:55:02.963Z,13.73
2022-09-09T20:57:29.175Z,15.23
2022-09-09T20:59:55.378Z,7.82
2022-09-09T21:02:21.761Z,12.57
2022-09-09T21:04:48.882Z,13.50
2022-09-09T21:07:15.119Z,10.85
2022-09-09T21:09:41.471Z,14.30
2022-09-09T21:12:08.515Z,13.05
2022-09-09T21:14:34.726Z,11.15
2022-09-09T21:17:00.933Z,13.38
2022-09-09T21:19:27.142Z,11.98
2022-09-09T21:21:53.478Z,14.77
2022-09-09T21:24:19.904Z,12.32
2022-09-09T21:26:46.168Z,15.68
2022-09-09T21:29:13.022Z,11.57
2022-09-09T21:31:39.279Z,16.98
2022-09-09T21:34:05.575Z,15.05
2022-09-09T21:36:31.827Z,18.05
2022-09-09T21:38:59.025Z,15.93
2022-09-09T21:41:25.721Z,18.80
2022-09-09T21:43:52.972Z,17.27
2022-09-09T21:46:19.374Z,14.25
2022-09-09T21:48:45.645Z,16.45
2022-09-09T21:51:13.994Z,23.17
2022-09-09T21:53:40.420Z,15.63
2022-09-09T21:56:08.223Z,19.08
2022-09-09T21:58:35.370Z,17.92
2022-09-09T22:01:01.886Z,18.77
2022-09-09T22:03:28.139Z,19.10
2022-09-09T22:05:54.466Z,13.63
2022-09-09T22:08:20.841Z,18.85
2022-09-09T22:10:47.511Z,13.48
2022-09-09T22:13:14.748Z,14.70
2022-09-09T22:15:42.022Z,19.90
2022-09-09T22:18:08.291Z,17.27
2022-09-09T22:20:39.510Z,16.65
2022-09-09T22:23:05.729Z,21.08
2022-09-09T22:25:32.878Z,20.70
2022-09-09T22:27:59.079Z,15.00
2022-09-09T22:30:25.284Z,19.75
2022-09-09T22:32:51.499Z,16.80
2022-09-09T22:35:17.714Z,29.50
2022-09-09T22:37:44.106Z,17.98
2022-09-09T22:40:10.461Z,21.02
2022-09-09T22:42:37.295Z,16.92
2022-09-09T22:45:03.621Z,18.95
2022-09-09T22:47:29.842Z,19.23
2022-09-09T22:49:56.864Z,16.67
2022-09-09T22:52:24.598Z,21.58
2022-09-09T22:54:51.610Z,19.98
2022-09-09T22:57:17.803Z,18.27
2022-09-09T22:59:45.084Z,13.45
2022-09-09T23:02:12.464Z,17.48
2022-09-09T23:04:39.130Z,14.70
2022-09-09T23:07:07.909Z,15.95
2022-09-09T23:09:34.387Z,17.73
2022-09-09T23:12:00.749Z,19.45
2022-09-09T23:14:27.224Z,17.45
2022-09-09T23:16:53.430Z,14.48
2022-09-09T23:19:21.674Z,14.70
2022-09-09T23:21:47.904Z,17.33
2022-09-09T23:24:16.231Z,14.75
2022-09-09T23:26:44.641Z,14.77
2022-09-09T23:29:14.186Z,13.40
2022-09-09T23:31:41.762Z,14.40
2022-09-09T23:34:07.974Z,20.83
2022-09-09T23:36:34.527Z,17.83
2022-09-09T23:39:03.063Z,17.77
2022-09-09T23:41:29.761Z,16.20
2022-09-09T23:43:55.967Z,10.70
2022-09-09T23:46:23.424Z,11.73
2022-09-09T23:48:51.541Z,12.52
2022-09-09T23:51:19.044Z,14.65
2022-09-09T23:53:48.800Z,14.35
2022-09-09T23:56:15.011Z,9.00
2022-09-09T23:58:42.002Z,12.93
